sensor_id;sensor_type;location;lat;lon;timestamp;pressure;altitude;pressure_sealevel;temperature;humidity
35888;BME280;21990;42.540;23.496;2023-02-12T00:00:47;94417.28;;;-6.33;79.61
35888;BME280;21990;42.540;23.496;2023-02-12T00:03:12;94426.25;;;-6.25;79.91
35888;BME280;21990;42.540;23.496;2023-02-12T00:05:39;94404.75;;;-6.34;80.08
35888;BME280;21990;42.540;23.496;2023-02-12T00:08:06;94399.69;;;-6.35;80.32
35888;BME280;21990;42.540;23.496;2023-02-12T00:10:32;94405.53;;;-6.33;80.54
35888;BME280;21990;42.540;23.496;2023-02-12T00:12:58;94409.03;;;-6.29;80.34
35888;BME280;21990;42.540;23.496;2023-02-12T04:51:04;94357.09;;;-5.72;86.36
35888;BME280;21990;42.540;23.496;2023-02-12T04:53:29;94352.31;;;-5.68;85.86
35888;BME280;21990;42.540;23.496;2023-02-12T04:55:55;94350.22;;;-5.53;86.16
35888;BME280;21990;42.540;23.496;2023-02-12T04:58:20;94361.16;;;-5.50;85.84
35888;BME280;21990;42.540;23.496;2023-02-12T05:00:46;94357.97;;;-5.48;85.78
35888;BME280;21990;42.540;23.496;2023-02-12T05:03:11;94355.13;;;-5.38;86.06
35888;BME280;21990;42.540;23.496;2023-02-12T05:05:37;94359.38;;;-5.33;85.95
35888;BME280;21990;42.540;23.496;2023-02-12T05:08:02;94357.31;;;-5.25;85.33
35888;BME280;21990;42.540;23.496;2023-02-12T05:10:28;94354.53;;;-5.22;85.42
35888;BME280;21990;42.540;23.496;2023-02-12T05:12:54;94357.94;;;-5.14;84.66
35888;BME280;21990;42.540;23.496;2023-02-12T05:15:20;94357.50;;;-5.13;84.35
35888;BME280;21990;42.540;23.496;2023-02-12T05:17:46;94361.47;;;-5.14;84.00
35888;BME280;21990;42.540;23.496;2023-02-12T05:20:12;94359.38;;;-5.33;84.48
35888;BME280;21990;42.540;23.496;2023-02-12T05:22:38;94369.09;;;-5.29;85.14
35888;BME280;21990;42.540;23.496;2023-02-12T05:25:04;94358.59;;;-5.34;85.33
35888;BME280;21990;42.540;23.496;2023-02-12T05:27:30;94365.38;;;-5.42;85.49
35888;BME280;21990;42.540;23.496;2023-02-12T05:29:55;94372.28;;;-5.30;86.24
35888;BME280;21990;42.540;23.496;2023-02-12T05:32:22;94378.47;;;-5.22;86.02
35888;BME280;21990;42.540;23.496;2023-02-12T05:34:47;94366.88;;;-5.07;85.65
35888;BME280;21990;42.540;23.496;2023-02-12T05:37:13;94371.47;;;-5.00;85.46
35888;BME280;21990;42.540;23.496;2023-02-12T05:39:39;94378.38;;;-4.89;84.97
35888;BME280;21990;42.540;23.496;2023-02-12T05:42:04;94383.00;;;-4.82;84.55
35888;BME280;21990;42.540;23.496;2023-02-12T05:44:30;94398.97;;;-4.73;84.56
35888;BME280;21990;42.540;23.496;2023-02-12T05:46:55;94402.19;;;-4.79;84.53
35888;BME280;21990;42.540;23.496;2023-02-12T05:49:21;94412.78;;;-4.77;84.99
35888;BME280;21990;42.540;23.496;2023-02-12T05:51:47;94410.03;;;-4.77;84.91
35888;BME280;21990;42.540;23.496;2023-02-12T05:54:12;94430.72;;;-4.69;86.05
35888;BME280;21990;42.540;23.496;2023-02-12T05:56:43;94421.22;;;-4.38;91.08
35888;BME280;21990;42.540;23.496;2023-02-12T05:59:19;94416.34;;;-4.03;93.80
35888;BME280;21990;42.540;23.496;2023-02-12T06:01:47;94415.47;;;-3.77;94.66
35888;BME280;21990;42.540;23.496;2023-02-12T06:04:16;94417.88;;;-3.56;94.66
35888;BME280;21990;42.540;23.496;2023-02-12T06:06:41;94413.63;;;-3.41;94.46
35888;BME280;21990;42.540;23.496;2023-02-12T06:09:09;94415.06;;;-3.32;93.39
35888;BME280;21990;42.540;23.496;2023-02-12T06:11:35;94415.56;;;-3.18;93.16
35888;BME280;21990;42.540;23.496;2023-02-12T06:14:02;94411.81;;;-3.08;93.45
35888;BME280;21990;42.540;23.496;2023-02-12T06:16:28;94410.81;;;-2.98;92.35
35888;BME280;21990;42.540;23.496;2023-02-12T06:18:54;94414.19;;;-2.90;91.82
35888;BME280;21990;42.540;23.496;2023-02-12T06:21:21;94410.50;;;-2.83;91.73
35888;BME280;21990;42.540;23.496;2023-02-12T06:23:48;94413.47;;;-2.74;90.85
35888;BME280;21990;42.540;23.496;2023-02-12T06:26:15;94412.34;;;-2.77;90.74
35888;BME280;21990;42.540;23.496;2023-02-12T06:28:41;94410.56;;;-2.67;90.05
35888;BME280;21990;42.540;23.496;2023-02-12T06:33:45;94402.41;;;-2.55;90.14
35888;BME280;21990;42.540;23.496;2023-02-12T06:36:11;94404.38;;;-2.55;90.60
35888;BME280;21990;42.540;23.496;2023-02-12T06:38:36;94406.09;;;-2.45;89.03
35888;BME280;21990;42.540;23.496;2023-02-12T06:41:03;94403.38;;;-2.29;88.42
35888;BME280;21990;42.540;23.496;2023-02-12T06:43:29;94409.34;;;-2.14;87.56
35888;BME280;21990;42.540;23.496;2023-02-12T06:45:54;94407.88;;;-2.03;86.74
35888;BME280;21990;42.540;23.496;2023-02-12T06:48:20;94400.97;;;-1.95;86.24
35888;BME280;21990;42.540;23.496;2023-02-12T06:50:45;94412.53;;;-2.00;86.56
35888;BME280;21990;42.540;23.496;2023-02-12T06:53:11;94414.50;;;-1.84;86.56
35888;BME280;21990;42.540;23.496;2023-02-12T06:55:37;94399.91;;;-1.68;86.26
35888;BME280;21990;42.540;23.496;2023-02-12T06:58:02;94411.88;;;-1.59;85.05
35888;BME280;21990;42.540;23.496;2023-02-12T07:00:28;94411.94;;;-1.46;85.04
35888;BME280;21990;42.540;23.496;2023-02-12T07:02:54;94406.84;;;-1.48;84.87
35888;BME280;21990;42.540;23.496;2023-02-12T07:05:21;94402.16;;;-1.34;84.74
35888;BME280;21990;42.540;23.496;2023-02-12T07:07:47;94414.22;;;-1.28;84.32
35888;BME280;21990;42.540;23.496;2023-02-12T07:10:12;94424.44;;;-1.25;84.29
35888;BME280;21990;42.540;23.496;2023-02-12T07:12:38;94423.25;;;-1.12;83.96
35888;BME280;21990;42.540;23.496;2023-02-12T07:15:04;94415.75;;;-1.11;83.53
35888;BME280;21990;42.540;23.496;2023-02-12T07:17:30;94427.06;;;-1.06;83.20
35888;BME280;21990;42.540;23.496;2023-02-12T07:19:56;94434.38;;;-0.99;83.32
35888;BME280;21990;42.540;23.496;2023-02-12T07:22:21;94433.84;;;-0.94;83.03
35888;BME280;21990;42.540;23.496;2023-02-12T07:24:47;94437.41;;;-0.93;83.09
35888;BME280;21990;42.540;23.496;2023-02-12T07:27:14;94436.84;;;-0.88;82.48
35888;BME280;21990;42.540;23.496;2023-02-12T07:29:39;94429.66;;;-0.86;82.29
35888;BME280;21990;42.540;23.496;2023-02-12T07:32:05;94433.00;;;-0.78;82.23
35888;BME280;21990;42.540;23.496;2023-02-12T07:34:31;94428.16;;;-0.74;81.79
35888;BME280;21990;42.540;23.496;2023-02-12T07:36:56;94431.25;;;-0.72;82.33
35888;BME280;21990;42.540;23.496;2023-02-12T07:39:22;94427.16;;;-0.68;81.88
35888;BME280;21990;42.540;23.496;2023-02-12T07:41:48;94420.94;;;-0.72;81.71
35888;BME280;21990;42.540;23.496;2023-02-12T07:44:16;94425.59;;;-0.69;82.20
35888;BME280;21990;42.540;23.496;2023-02-12T07:46:44;94418.44;;;-0.66;81.85
35888;BME280;21990;42.540;23.496;2023-02-12T07:49:15;94435.25;;;-0.61;82.44
35888;BME280;21990;42.540;23.496;2023-02-12T07:51:41;94431.69;;;-0.61;82.12
35888;BME280;21990;42.540;23.496;2023-02-12T07:54:07;94430.72;;;-0.55;81.43
35888;BME280;21990;42.540;23.496;2023-02-12T07:56:35;94429.06;;;-0.52;81.23
35888;BME280;21990;42.540;23.496;2023-02-12T07:59:07;94438.03;;;-0.48;81.29
35888;BME280;21990;42.540;23.496;2023-02-12T08:01:36;94439.59;;;-0.47;81.53
35888;BME280;21990;42.540;23.496;2023-02-12T08:04:05;94442.47;;;-0.38;80.90
35888;BME280;21990;42.540;23.496;2023-02-12T08:06:33;94445.69;;;-0.39;80.98
35888;BME280;21990;42.540;23.496;2023-02-12T08:09:01;94440.03;;;-0.49;81.58
35888;BME280;21990;42.540;23.496;2023-02-12T08:11:29;94449.25;;;-0.39;81.43
35888;BME280;21990;42.540;23.496;2023-02-12T08:13:56;94449.03;;;-0.32;81.19
35888;BME280;21990;42.540;23.496;2023-02-12T08:16:23;94457.09;;;-0.37;80.89
35888;BME280;21990;42.540;23.496;2023-02-12T08:18:50;94454.69;;;-0.35;81.39
35888;BME280;21990;42.540;23.496;2023-02-12T08:21:22;94451.56;;;-0.37;81.34
35888;BME280;21990;42.540;23.496;2023-02-12T08:23:48;94452.91;;;-0.29;80.90
35888;BME280;21990;42.540;23.496;2023-02-12T08:26:18;94458.22;;;-0.22;81.04
35888;BME280;21990;42.540;23.496;2023-02-12T08:28:47;94457.69;;;-0.17;80.88
35888;BME280;21990;42.540;23.496;2023-02-12T08:31:24;94467.66;;;-0.20;80.96
35888;BME280;21990;42.540;23.496;2023-02-12T08:33:51;94468.66;;;-0.14;80.93
35888;BME280;21990;42.540;23.496;2023-02-12T08:36:29;94477.88;;;-0.04;80.35
35888;BME280;21990;42.540;23.496;2023-02-12T08:38:58;94467.31;;;-0.09;80.91
35888;BME280;21990;42.540;23.496;2023-02-12T08:41:26;94467.09;;;-0.15;81.41
35888;BME280;21990;42.540;23.496;2023-02-12T08:43:54;94467.97;;;-0.18;80.89
35888;BME280;21990;42.540;23.496;2023-02-12T08:46:22;94469.06;;;-0.15;81.14
35888;BME280;21990;42.540;23.496;2023-02-12T08:48:55;94468.97;;;-0.12;81.23
35888;BME280;21990;42.540;23.496;2023-02-12T08:51:23;94474.44;;;-0.08;81.17
35888;BME280;21990;42.540;23.496;2023-02-12T08:53:55;94468.53;;;-0.10;81.07
35888;BME280;21990;42.540;23.496;2023-02-12T08:56:22;94467.44;;;-0.13;81.55
35888;BME280;21990;42.540;23.496;2023-02-12T08:58:48;94465.34;;;-0.09;81.07
35888;BME280;21990;42.540;23.496;2023-02-12T09:01:20;94473.75;;;-0.12;81.82
35888;BME280;21990;42.540;23.496;2023-02-12T09:03:47;94473.75;;;-0.12;81.70
35888;BME280;21990;42.540;23.496;2023-02-12T09:06:13;94483.50;;;-0.08;81.56
35888;BME280;21990;42.540;23.496;2023-02-12T09:08:39;94477.75;;;-0.01;81.43
35888;BME280;21990;42.540;23.496;2023-02-12T09:11:08;94491.59;;;-0.01;81.23
35888;BME280;21990;42.540;23.496;2023-02-12T09:13:34;94493.03;;;0.04;81.46
35888;BME280;21990;42.540;23.496;2023-02-12T09:16:02;94494.47;;;0.09;81.51
35888;BME280;21990;42.540;23.496;2023-02-12T09:18:29;94492.06;;;0.11;80.77
35888;BME280;21990;42.540;23.496;2023-02-12T09:20:54;94488.84;;;-0.01;81.57
35888;BME280;21990;42.540;23.496;2023-02-12T09:23:24;94500.91;;;0.06;81.52
35888;BME280;21990;42.540;23.496;2023-02-12T09:25:50;94502.25;;;0.14;81.91
35888;BME280;21990;42.540;23.496;2023-02-12T09:28:15;94498.94;;;0.19;81.43
35888;BME280;21990;42.540;23.496;2023-02-12T09:30:41;94507.66;;;0.17;81.87
35888;BME280;21990;42.540;23.496;2023-02-12T09:33:09;94501.13;;;0.24;81.73
35888;BME280;21990;42.540;23.496;2023-02-12T09:35:37;94498.03;;;0.34;81.36
35888;BME280;21990;42.540;23.496;2023-02-12T09:38:03;94511.78;;;0.38;81.33
35888;BME280;21990;42.540;23.496;2023-02-12T09:40:43;94515.34;;;0.38;81.76
35888;BME280;21990;42.540;23.496;2023-02-12T09:43:23;94506.13;;;0.41;81.59
35888;BME280;21990;42.540;23.496;2023-02-12T09:46:14;94522.97;;;0.47;81.70
35888;BME280;21990;42.540;23.496;2023-02-12T09:51:18;94520.72;;;0.55;81.13
35888;BME280;21990;42.540;23.496;2023-02-12T09:53:45;94512.75;;;0.57;81.35
35888;BME280;21990;42.540;23.496;2023-02-12T09:56:15;94521.06;;;0.57;81.31
35888;BME280;21990;42.540;23.496;2023-02-12T09:58:55;94524.81;;;0.63;81.48
35888;BME280;21990;42.540;23.496;2023-02-12T10:01:22;94525.28;;;0.74;80.76
35888;BME280;21990;42.540;23.496;2023-02-12T10:03:49;94516.72;;;0.81;80.86
35888;BME280;21990;42.540;23.496;2023-02-12T10:06:21;94519.38;;;0.84;80.98
35888;BME280;21990;42.540;23.496;2023-02-12T10:12:06;94508.56;;;0.99;80.30
35888;BME280;21990;42.540;23.496;2023-02-12T10:14:50;94510.31;;;1.06;80.49
35888;BME280;21990;42.540;23.496;2023-02-12T10:22:54;94511.78;;;1.32;79.43
35888;BME280;21990;42.540;23.496;2023-02-12T10:27:54;94506.38;;;1.50;78.67
35888;BME280;21990;42.540;23.496;2023-02-12T10:32:58;94507.75;;;1.67;78.47
35888;BME280;21990;42.540;23.496;2023-02-12T10:35:25;94506.97;;;1.67;78.09
35888;BME280;21990;42.540;23.496;2023-02-12T10:37:59;94502.69;;;1.75;78.17
35888;BME280;21990;42.540;23.496;2023-02-12T10:40:34;94501.00;;;1.77;77.98
35888;BME280;21990;42.540;23.496;2023-02-12T10:43:02;94510.00;;;1.81;77.27
35888;BME280;21990;42.540;23.496;2023-02-12T10:45:32;94509.22;;;1.81;77.52
35888;BME280;21990;42.540;23.496;2023-02-12T10:53:29;94515.06;;;1.83;77.53
35888;BME280;21990;42.540;23.496;2023-02-12T11:01:29;94519.78;;;1.95;77.07
35888;BME280;21990;42.540;23.496;2023-02-12T11:03:57;94519.34;;;1.97;77.09
35888;BME280;21990;42.540;23.496;2023-02-12T11:06:28;94514.72;;;2.03;76.20
35888;BME280;21990;42.540;23.496;2023-02-12T11:09:00;94515.66;;;2.00;76.11
35888;BME280;21990;42.540;23.496;2023-02-12T11:11:30;94516.88;;;1.99;76.35
35888;BME280;21990;42.540;23.496;2023-02-12T11:14:20;94518.28;;;2.03;76.10
35888;BME280;21990;42.540;23.496;2023-02-12T11:16:57;94512.56;;;1.98;76.04
35888;BME280;21990;42.540;23.496;2023-02-12T11:19:30;94504.03;;;1.92;76.24
35888;BME280;21990;42.540;23.496;2023-02-12T11:22:13;94511.00;;;1.97;76.12
35888;BME280;21990;42.540;23.496;2023-02-12T11:24:43;94516.56;;;1.97;76.51
35888;BME280;21990;42.540;23.496;2023-02-12T11:29:42;94515.00;;;1.96;76.20
35888;BME280;21990;42.540;23.496;2023-02-12T11:32:15;94516.69;;;1.93;76.79
35888;BME280;21990;42.540;23.496;2023-02-12T11:34:40;94518.41;;;1.90;76.77
35888;BME280;21990;42.540;23.496;2023-02-12T11:37:15;94514.56;;;1.97;76.55
35888;BME280;21990;42.540;23.496;2023-02-12T11:39:46;94520.84;;;1.88;76.66
35888;BME280;21990;42.540;23.496;2023-02-12T11:42:17;94516.22;;;1.95;76.63
35888;BME280;21990;42.540;23.496;2023-02-12T11:44:54;94513.91;;;1.93;76.37
35888;BME280;21990;42.540;23.496;2023-02-12T11:47:27;94518.91;;;1.98;76.56
35888;BME280;21990;42.540;23.496;2023-02-12T11:49:57;94520.69;;;1.92;76.70
35888;BME280;21990;42.540;23.496;2023-02-12T11:52:27;94526.91;;;1.96;76.67
35888;BME280;21990;42.540;23.496;2023-02-12T11:54:57;94523.41;;;2.05;76.38
35888;BME280;21990;42.540;23.496;2023-02-12T12:00:13;94525.00;;;2.15;75.45
35888;BME280;21990;42.540;23.496;2023-02-12T12:03:09;94520.06;;;2.19;75.96
35888;BME280;21990;42.540;23.496;2023-02-12T12:05:38;94518.72;;;2.23;75.29
35888;BME280;21990;42.540;23.496;2023-02-12T12:08:18;94518.84;;;2.20;75.34
35888;BME280;21990;42.540;23.496;2023-02-12T12:13:21;94515.00;;;2.26;74.55
35888;BME280;21990;42.540;23.496;2023-02-12T12:15:52;94514.72;;;2.24;74.89
35888;BME280;21990;42.540;23.496;2023-02-12T12:18:59;94524.91;;;2.27;74.87
35888;BME280;21990;42.540;23.496;2023-02-12T12:22:04;94533.41;;;2.24;75.15
35888;BME280;21990;42.540;23.496;2023-02-12T12:24:37;94531.25;;;2.28;74.72
35888;BME280;21990;42.540;23.496;2023-02-12T12:27:44;94539.00;;;2.33;74.44
35888;BME280;21990;42.540;23.496;2023-02-12T12:33:51;94535.47;;;2.42;74.75
35888;BME280;21990;42.540;23.496;2023-02-12T12:36:39;94530.25;;;2.44;74.19
35888;BME280;21990;42.540;23.496;2023-02-12T12:51:11;94533.31;;;2.36;74.49
35888;BME280;21990;42.540;23.496;2023-02-12T12:54:26;94533.75;;;2.35;74.65
35888;BME280;21990;42.540;23.496;2023-02-12T13:13:34;94538.22;;;2.32;74.91
35888;BME280;21990;42.540;23.496;2023-02-12T13:19:10;94544.88;;;2.35;75.14
35888;BME280;21990;42.540;23.496;2023-02-12T13:22:01;94539.59;;;2.28;74.94
35888;BME280;21990;42.540;23.496;2023-02-12T13:24:44;94544.06;;;2.25;75.48
35888;BME280;21990;42.540;23.496;2023-02-12T13:27:19;94552.06;;;2.23;75.55
35888;BME280;21990;42.540;23.496;2023-02-12T13:32:28;94562.28;;;2.26;75.23
35888;BME280;21990;42.540;23.496;2023-02-12T13:34:55;94567.41;;;2.28;75.31
35888;BME280;21990;42.540;23.496;2023-02-12T13:37:34;94571.28;;;2.30;74.96
35888;BME280;21990;42.540;23.496;2023-02-12T13:40:05;94566.03;;;2.32;75.41
35888;BME280;21990;42.540;23.496;2023-02-12T13:42:52;94569.63;;;2.42;75.09
35888;BME280;21990;42.540;23.496;2023-02-12T13:48:40;94582.03;;;2.50;74.74
35888;BME280;21990;42.540;23.496;2023-02-12T13:51:01;94565.50;;;2.47;74.97
35888;BME280;21990;42.540;23.496;2023-02-12T13:53:46;94566.13;;;2.51;74.85
35888;BME280;21990;42.540;23.496;2023-02-12T13:56:23;94575.88;;;2.55;74.55
35888;BME280;21990;42.540;23.496;2023-02-12T13:58:53;94587.59;;;2.50;74.47
35888;BME280;21990;42.540;23.496;2023-02-12T14:07:09;94596.59;;;2.54;74.35
35888;BME280;21990;42.540;23.496;2023-02-12T14:12:34;94592.13;;;2.57;74.23
35888;BME280;21990;42.540;23.496;2023-02-12T14:15:25;94597.50;;;2.51;74.36
35888;BME280;21990;42.540;23.496;2023-02-12T14:17:55;94609.56;;;2.48;74.59
35888;BME280;21990;42.540;23.496;2023-02-12T14:20:25;94620.41;;;2.55;74.13
35888;BME280;21990;42.540;23.496;2023-02-12T14:33:44;94641.16;;;2.63;73.85
35888;BME280;21990;42.540;23.496;2023-02-12T14:39:02;94643.66;;;2.70;73.76
35888;BME280;21990;42.540;23.496;2023-02-12T14:41:31;94644.75;;;2.73;73.64
35888;BME280;21990;42.540;23.496;2023-02-12T14:46:52;94658.81;;;2.69;73.88
35888;BME280;21990;42.540;23.496;2023-02-12T14:49:35;94651.44;;;2.75;73.84
35888;BME280;21990;42.540;23.496;2023-02-12T14:57:35;94670.84;;;2.66;73.64
35888;BME280;21990;42.540;23.496;2023-02-12T15:00:04;94667.44;;;2.62;73.99
35888;BME280;21990;42.540;23.496;2023-02-12T15:02:56;94679.66;;;2.65;74.14
35888;BME280;21990;42.540;23.496;2023-02-12T15:05:31;94680.75;;;2.67;74.10
35888;BME280;21990;42.540;23.496;2023-02-12T15:08:02;94687.25;;;2.64;73.79
35888;BME280;21990;42.540;23.496;2023-02-12T15:10:51;94694.16;;;2.60;73.64
35888;BME280;21990;42.540;23.496;2023-02-12T15:18:47;94696.44;;;2.52;74.07
35888;BME280;21990;42.540;23.496;2023-02-12T15:21:29;94707.88;;;2.54;73.93
35888;BME280;21990;42.540;23.496;2023-02-12T15:24:05;94714.22;;;2.55;73.88
35888;BME280;21990;42.540;23.496;2023-02-12T15:26:34;94727.81;;;2.53;74.22
35888;BME280;21990;42.540;23.496;2023-02-12T15:29:01;94729.88;;;2.39;74.78
35888;BME280;21990;42.540;23.496;2023-02-12T15:31:29;94737.13;;;2.37;74.89
35888;BME280;21990;42.540;23.496;2023-02-12T15:33:57;94735.31;;;2.43;74.89
35888;BME280;21990;42.540;23.496;2023-02-12T15:36:26;94738.53;;;2.42;74.62
35888;BME280;21990;42.540;23.496;2023-02-12T15:39:04;94743.13;;;2.35;75.24
35888;BME280;21990;42.540;23.496;2023-02-12T15:43:56;94740.78;;;2.34;75.03
35888;BME280;21990;42.540;23.496;2023-02-12T15:46:22;94742.78;;;2.33;75.21
35888;BME280;21990;42.540;23.496;2023-02-12T15:48:48;94746.84;;;2.20;75.11
35888;BME280;21990;42.540;23.496;2023-02-12T15:51:36;94756.41;;;2.19;75.28
35888;BME280;21990;42.540;23.496;2023-02-12T15:54:06;94748.22;;;2.15;75.27
35888;BME280;21990;42.540;23.496;2023-02-12T15:56:33;94755.31;;;2.16;75.32
35888;BME280;21990;42.540;23.496;2023-02-12T15:59:01;94754.00;;;2.08;75.46
35888;BME280;21990;42.540;23.496;2023-02-12T16:01:30;94756.91;;;2.05;75.85
35888;BME280;21990;42.540;23.496;2023-02-12T16:04:02;94760.47;;;2.05;76.02
35888;BME280;21990;42.540;23.496;2023-02-12T16:06:31;94766.69;;;2.09;75.75
35888;BME280;21990;42.540;23.496;2023-02-12T16:09:03;94764.72;;;1.97;75.74
35888;BME280;21990;42.540;23.496;2023-02-12T16:11:31;94769.59;;;2.06;75.33
35888;BME280;21990;42.540;23.496;2023-02-12T16:14:00;94781.50;;;2.06;75.19
35888;BME280;21990;42.540;23.496;2023-02-12T16:16:39;94787.09;;;1.94;75.29
35888;BME280;21990;42.540;23.496;2023-02-12T16:19:30;94789.41;;;1.95;75.48
35888;BME280;21990;42.540;23.496;2023-02-12T16:22:11;94802.19;;;1.92;75.94
35888;BME280;21990;42.540;23.496;2023-02-12T16:24:46;94807.88;;;1.89;75.56
35888;BME280;21990;42.540;23.496;2023-02-12T16:27:22;94820.66;;;1.86;76.13
35888;BME280;21990;42.540;23.496;2023-02-12T16:29:51;94822.78;;;1.82;76.14
35888;BME280;21990;42.540;23.496;2023-02-12T16:35:04;94822.91;;;1.79;75.87
35888;BME280;21990;42.540;23.496;2023-02-12T16:50:42;94841.66;;;1.50;76.96
35888;BME280;21990;42.540;23.496;2023-02-12T16:53:37;94844.13;;;1.48;76.80
35888;BME280;21990;42.540;23.496;2023-02-12T16:56:11;94848.91;;;1.47;77.11
35888;BME280;21990;42.540;23.496;2023-02-12T16:58:40;94853.78;;;1.43;76.95
35888;BME280;21990;42.540;23.496;2023-02-12T17:01:06;94859.06;;;1.25;77.38
35888;BME280;21990;42.540;23.496;2023-02-12T17:03:32;94864.09;;;1.30;78.32
35888;BME280;21990;42.540;23.496;2023-02-12T17:05:59;94866.66;;;1.24;78.21
35888;BME280;21990;42.540;23.496;2023-02-12T17:08:24;94875.72;;;1.25;78.52
35888;BME280;21990;42.540;23.496;2023-02-12T17:10:51;94868.38;;;1.18;78.14
35888;BME280;21990;42.540;23.496;2023-02-12T17:13:17;94879.06;;;1.20;78.03
35888;BME280;21990;42.540;23.496;2023-02-12T17:15:49;94874.84;;;1.15;78.02
35888;BME280;21990;42.540;23.496;2023-02-12T17:18:17;94876.03;;;1.14;78.28
35888;BME280;21990;42.540;23.496;2023-02-12T17:20:45;94894.69;;;1.14;78.16
35888;BME280;21990;42.540;23.496;2023-02-12T17:23:12;94892.47;;;1.09;77.98
35888;BME280;21990;42.540;23.496;2023-02-12T17:25:37;94897.16;;;1.12;77.88
35888;BME280;21990;42.540;23.496;2023-02-12T17:28:05;94902.69;;;1.12;78.35
35888;BME280;21990;42.540;23.496;2023-02-12T17:30:33;94907.66;;;1.04;78.04
35888;BME280;21990;42.540;23.496;2023-02-12T17:33:04;94902.53;;;1.03;78.30
35888;BME280;21990;42.540;23.496;2023-02-12T17:35:32;94899.53;;;0.97;78.20
35888;BME280;21990;42.540;23.496;2023-02-12T17:37:57;94916.53;;;0.99;78.25
35888;BME280;21990;42.540;23.496;2023-02-12T17:40:23;94918.63;;;0.95;77.99
35888;BME280;21990;42.540;23.496;2023-02-12T17:42:49;94913.94;;;0.92;77.37
35888;BME280;21990;42.540;23.496;2023-02-12T17:45:14;94925.94;;;0.89;77.39
35888;BME280;21990;42.540;23.496;2023-02-12T17:47:41;94930.00;;;0.84;77.60
35888;BME280;21990;42.540;23.496;2023-02-12T17:50:09;94942.06;;;0.78;77.72
35888;BME280;21990;42.540;23.496;2023-02-12T17:52:38;94940.53;;;0.77;77.33
35888;BME280;21990;42.540;23.496;2023-02-12T17:55:04;94939.84;;;0.73;77.72
35888;BME280;21990;42.540;23.496;2023-02-12T17:57:30;94944.59;;;0.72;77.45
35888;BME280;21990;42.540;23.496;2023-02-12T17:59:56;94954.22;;;0.68;77.57
35888;BME280;21990;42.540;23.496;2023-02-12T18:02:22;94953.19;;;0.62;77.69
35888;BME280;21990;42.540;23.496;2023-02-12T18:04:48;94950.94;;;0.57;78.00
35888;BME280;21990;42.540;23.496;2023-02-12T18:07:13;94944.19;;;0.58;78.10
35888;BME280;21990;42.540;23.496;2023-02-12T18:09:39;94951.81;;;0.54;77.98
35888;BME280;21990;42.540;23.496;2023-02-12T18:12:06;94959.34;;;0.53;78.51
35888;BME280;21990;42.540;23.496;2023-02-12T18:14:31;94962.56;;;0.52;78.78
35888;BME280;21990;42.540;23.496;2023-02-12T18:16:57;94966.97;;;0.49;78.41
35888;BME280;21990;42.540;23.496;2023-02-12T18:19:25;94967.50;;;0.44;78.40
35888;BME280;21990;42.540;23.496;2023-02-12T18:21:50;94971.84;;;0.45;79.20
35888;BME280;21990;42.540;23.496;2023-02-12T18:24:16;94967.84;;;0.46;79.50
35888;BME280;21990;42.540;23.496;2023-02-12T18:26:41;94968.28;;;0.44;79.65
35888;BME280;21990;42.540;23.496;2023-02-12T18:29:07;94974.44;;;0.36;79.76
35888;BME280;21990;42.540;23.496;2023-02-12T18:31:32;94966.19;;;0.32;79.98
35888;BME280;21990;42.540;23.496;2023-02-12T18:33:59;94962.91;;;0.37;80.55
35888;BME280;21990;42.540;23.496;2023-02-12T18:36:24;94967.59;;;0.40;80.32
35888;BME280;21990;42.540;23.496;2023-02-12T18:38:51;94965.09;;;0.46;80.74
35888;BME280;21990;42.540;23.496;2023-02-12T18:41:28;94961.53;;;0.45;80.77
35888;BME280;21990;42.540;23.496;2023-02-12T18:43:55;94958.38;;;0.43;80.92
35888;BME280;21990;42.540;23.496;2023-02-12T18:46:23;94954.00;;;0.46;80.71
35888;BME280;21990;42.540;23.496;2023-02-12T18:48:50;94958.31;;;0.47;80.98
35888;BME280;21990;42.540;23.496;2023-02-12T18:51:22;94964.38;;;0.42;80.81
35888;BME280;21990;42.540;23.496;2023-02-12T18:54:11;94958.84;;;0.42;81.02
35888;BME280;21990;42.540;23.496;2023-02-12T18:56:40;94978.16;;;0.45;81.68
35888;BME280;21990;42.540;23.496;2023-02-12T18:59:10;94971.84;;;0.45;81.37
35888;BME280;21990;42.540;23.496;2023-02-12T19:01:36;94975.72;;;0.47;81.44
35888;BME280;21990;42.540;23.496;2023-02-12T19:04:04;94976.19;;;0.46;81.40
35888;BME280;21990;42.540;23.496;2023-02-12T19:06:31;94980.44;;;0.51;81.85
35888;BME280;21990;42.540;23.496;2023-02-12T19:09:00;94989.34;;;0.42;81.84
35888;BME280;21990;42.540;23.496;2023-02-12T19:11:27;94993.66;;;0.43;82.25
35888;BME280;21990;42.540;23.496;2023-02-12T19:13:53;94992.03;;;0.45;82.16
35888;BME280;21990;42.540;23.496;2023-02-12T19:16:20;94995.59;;;0.46;82.26
35888;BME280;21990;42.540;23.496;2023-02-12T19:18:47;95002.44;;;0.41;81.98
35888;BME280;21990;42.540;23.496;2023-02-12T19:21:14;95010.84;;;0.38;81.80
35888;BME280;21990;42.540;23.496;2023-02-12T19:23:43;95003.38;;;0.35;82.83
35888;BME280;21990;42.540;23.496;2023-02-12T19:26:14;94995.06;;;0.35;82.76
35888;BME280;21990;42.540;23.496;2023-02-12T19:28:41;95001.28;;;0.23;82.56
35888;BME280;21990;42.540;23.496;2023-02-12T19:31:09;95001.97;;;0.11;83.15
35888;BME280;21990;42.540;23.496;2023-02-12T19:33:34;94994.78;;;0.13;83.13
35888;BME280;21990;42.540;23.496;2023-02-12T19:36:01;95006.84;;;0.23;83.11
35888;BME280;21990;42.540;23.496;2023-02-12T19:38:27;94997.28;;;0.24;83.07
35888;BME280;21990;42.540;23.496;2023-02-12T19:41:01;95005.59;;;0.24;82.68
35888;BME280;21990;42.540;23.496;2023-02-12T19:43:28;95010.72;;;0.25;82.17
35888;BME280;21990;42.540;23.496;2023-02-12T19:45:53;95008.38;;;0.24;82.04
35888;BME280;21990;42.540;23.496;2023-02-12T19:48:19;95007.75;;;0.16;81.57
35888;BME280;21990;42.540;23.496;2023-02-12T19:50:45;95017.38;;;0.12;81.78
35888;BME280;21990;42.540;23.496;2023-02-12T19:53:10;95022.06;;;0.15;81.95
35888;BME280;21990;42.540;23.496;2023-02-12T19:55:36;95021.38;;;0.11;82.17
35888;BME280;21990;42.540;23.496;2023-02-12T19:58:01;95026.91;;;0.11;81.61
35888;BME280;21990;42.540;23.496;2023-02-12T20:00:27;95027.81;;;0.04;82.09